sensor_id;sensor_type;location;lat;lon;timestamp;P1;durP1;ratioP1;P2;durP2;ratioP2
31390;SDS011;18022;45.492;11.548;2023-05-07T00:00:05;9.40;;;6.63;;
31390;SDS011;18022;45.492;11.548;2023-05-07T00:02:34;7.32;;;6.63;;
31390;SDS011;18022;45.492;11.548;2023-05-07T00:05:01;8.88;;;6.80;;
31390;SDS011;18022;45.492;11.548;2023-05-07T00:07:27;8.18;;;6.63;;
31390;SDS011;18022;45.492;11.548;2023-05-07T00:09:53;6.82;;;6.10;;
31390;SDS011;18022;45.492;11.548;2023-05-07T00:12:19;7.85;;;6.93;;
31390;SDS011;18022;45.492;11.548;2023-05-07T00:14:45;7.50;;;6.78;;
31390;SDS011;18022;45.492;11.548;2023-05-07T00:17:11;9.73;;;6.70;;
31390;SDS011;18022;45.492;11.548;2023-05-07T00:19:37;10.63;;;7.15;;
31390;SDS011;18022;45.492;11.548;2023-05-07T00:22:04;9.43;;;7.53;;
31390;SDS011;18022;45.492;11.548;2023-05-07T00:24:30;7.75;;;7.05;;
31390;SDS011;18022;45.492;11.548;2023-05-07T00:26:56;7.85;;;6.90;;
31390;SDS011;18022;45.492;11.548;2023-05-07T00:29:23;9.30;;;6.90;;
31390;SDS011;18022;45.492;11.548;2023-05-07T00:31:49;7.18;;;6.55;;
31390;SDS011;18022;45.492;11.548;2023-05-07T00:34:15;9.20;;;7.28;;
31390;SDS011;18022;45.492;11.548;2023-05-07T00:36:41;8.13;;;7.20;;
31390;SDS011;18022;45.492;11.548;2023-05-07T00:39:07;8.48;;;7.45;;
31390;SDS011;18022;45.492;11.548;2023-05-07T00:41:34;13.10;;;7.50;;
31390;SDS011;18022;45.492;11.548;2023-05-07T00:44:00;8.40;;;7.50;;
31390;SDS011;18022;45.492;11.548;2023-05-07T00:46:27;8.43;;;7.32;;
31390;SDS011;18022;45.492;11.548;2023-05-07T00:48:54;8.10;;;7.30;;
31390;SDS011;18022;45.492;11.548;2023-05-07T00:51:20;10.43;;;7.68;;
31390;SDS011;18022;45.492;11.548;2023-05-07T00:53:47;10.95;;;7.25;;
31390;SDS011;18022;45.492;11.548;2023-05-07T00:56:13;7.97;;;7.18;;
31390;SDS011;18022;45.492;11.548;2023-05-07T00:58:39;8.60;;;7.75;;
31390;SDS011;18022;45.492;11.548;2023-05-07T01:01:05;8.38;;;7.47;;
31390;SDS011;18022;45.492;11.548;2023-05-07T01:03:32;9.98;;;7.55;;
31390;SDS011;18022;45.492;11.548;2023-05-07T01:05:58;8.68;;;7.18;;
31390;SDS011;18022;45.492;11.548;2023-05-07T01:08:25;7.88;;;7.07;;
31390;SDS011;18022;45.492;11.548;2023-05-07T01:13:18;9.25;;;7.50;;
31390;SDS011;18022;45.492;11.548;2023-05-07T01:15:45;9.63;;;7.13;;
31390;SDS011;18022;45.492;11.548;2023-05-07T01:18:11;9.82;;;7.28;;
31390;SDS011;18022;45.492;11.548;2023-05-07T01:20:37;9.52;;;6.78;;
31390;SDS011;18022;45.492;11.548;2023-05-07T01:23:03;8.02;;;7.18;;
31390;SDS011;18022;45.492;11.548;2023-05-07T01:25:29;8.45;;;7.57;;
31390;SDS011;18022;45.492;11.548;2023-05-07T01:27:56;9.25;;;7.60;;
31390;SDS011;18022;45.492;11.548;2023-05-07T01:30:22;9.68;;;7.85;;
31390;SDS011;18022;45.492;11.548;2023-05-07T01:32:50;8.73;;;7.82;;
31390;SDS011;18022;45.492;11.548;2023-05-07T01:35:18;8.25;;;7.45;;
31390;SDS011;18022;45.492;11.548;2023-05-07T01:37:46;8.18;;;7.38;;
31390;SDS011;18022;45.492;11.548;2023-05-07T01:40:12;8.65;;;7.72;;
31390;SDS011;18022;45.492;11.548;2023-05-07T01:42:38;9.05;;;7.85;;
31390;SDS011;18022;45.492;11.548;2023-05-07T01:45:04;13.32;;;7.88;;
31390;SDS011;18022;45.492;11.548;2023-05-07T01:47:31;8.93;;;8.02;;
31390;SDS011;18022;45.492;11.548;2023-05-07T01:49:57;8.40;;;7.35;;
31390;SDS011;18022;45.492;11.548;2023-05-07T01:52:23;9.93;;;7.65;;
31390;SDS011;18022;45.492;11.548;2023-05-07T01:54:50;8.45;;;7.70;;
31390;SDS011;18022;45.492;11.548;2023-05-07T01:57:16;8.77;;;7.90;;
31390;SDS011;18022;45.492;11.548;2023-05-07T01:59:42;8.23;;;7.50;;
31390;SDS011;18022;45.492;11.548;2023-05-07T02:02:08;11.45;;;8.45;;
31390;SDS011;18022;45.492;11.548;2023-05-07T02:04:34;8.55;;;7.65;;
31390;SDS011;18022;45.492;11.548;2023-05-07T02:07:00;10.23;;;7.75;;
31390;SDS011;18022;45.492;11.548;2023-05-07T02:09:26;8.85;;;7.93;;
31390;SDS011;18022;45.492;11.548;2023-05-07T02:11:52;9.10;;;8.07;;
31390;SDS011;18022;45.492;11.548;2023-05-07T02:14:18;8.75;;;7.95;;
31390;SDS011;18022;45.492;11.548;2023-05-07T02:16:45;8.77;;;7.60;;
31390;SDS011;18022;45.492;11.548;2023-05-07T02:19:11;7.95;;;7.00;;
31390;SDS011;18022;45.492;11.548;2023-05-07T02:21:37;9.30;;;7.50;;
31390;SDS011;18022;45.492;11.548;2023-05-07T02:24:03;8.85;;;7.72;;
31390;SDS011;18022;45.492;11.548;2023-05-07T02:26:29;7.93;;;7.13;;
31390;SDS011;18022;45.492;11.548;2023-05-07T02:28:55;8.20;;;7.38;;
31390;SDS011;18022;45.492;11.548;2023-05-07T02:31:21;8.77;;;7.47;;
31390;SDS011;18022;45.492;11.548;2023-05-07T02:33:47;9.20;;;8.05;;
31390;SDS011;18022;45.492;11.548;2023-05-07T02:36:13;9.48;;;7.93;;
31390;SDS011;18022;45.492;11.548;2023-05-07T02:38:40;9.68;;;8.40;;
31390;SDS011;18022;45.492;11.548;2023-05-07T02:41:06;11.23;;;7.75;;
31390;SDS011;18022;45.492;11.548;2023-05-07T02:43:32;8.10;;;7.30;;
31390;SDS011;18022;45.492;11.548;2023-05-07T02:46:01;9.07;;;7.82;;
31390;SDS011;18022;45.492;11.548;2023-05-07T02:48:28;8.02;;;6.93;;
31390;SDS011;18022;45.492;11.548;2023-05-07T02:50:54;8.48;;;7.63;;
31390;SDS011;18022;45.492;11.548;2023-05-07T02:53:20;8.23;;;7.28;;
31390;SDS011;18022;45.492;11.548;2023-05-07T02:55:46;9.00;;;7.45;;
31390;SDS011;18022;45.492;11.548;2023-05-07T02:58:12;8.73;;;7.28;;
31390;SDS011;18022;45.492;11.548;2023-05-07T03:00:38;9.70;;;6.75;;
31390;SDS011;18022;45.492;11.548;2023-05-07T03:03:04;8.52;;;7.28;;
31390;SDS011;18022;45.492;11.548;2023-05-07T03:05:30;9.32;;;7.15;;
31390;SDS011;18022;45.492;11.548;2023-05-07T03:07:56;10.75;;;7.63;;
31390;SDS011;18022;45.492;11.548;2023-05-07T03:10:22;7.95;;;7.03;;
31390;SDS011;18022;45.492;11.548;2023-05-07T03:12:48;8.05;;;7.25;;
31390;SDS011;18022;45.492;11.548;2023-05-07T03:15:14;9.07;;;7.10;;
31390;SDS011;18022;45.492;11.548;2023-05-07T03:17:40;7.25;;;6.55;;
31390;SDS011;18022;45.492;11.548;2023-05-07T03:20:07;7.60;;;6.53;;
31390;SDS011;18022;45.492;11.548;2023-05-07T03:22:34;9.10;;;6.68;;
31390;SDS011;18022;45.492;11.548;2023-05-07T03:25:00;7.75;;;7.00;;
31390;SDS011;18022;45.492;11.548;2023-05-07T03:27:26;8.23;;;7.00;;
31390;SDS011;18022;45.492;11.548;2023-05-07T03:29:52;8.27;;;7.22;;
31390;SDS011;18022;45.492;11.548;2023-05-07T03:32:18;11.25;;;7.38;;
31390;SDS011;18022;45.492;11.548;2023-05-07T03:34:44;7.50;;;6.65;;
31390;SDS011;18022;45.492;11.548;2023-05-07T03:37:10;7.05;;;6.45;;
31390;SDS011;18022;45.492;11.548;2023-05-07T03:39:36;9.73;;;6.53;;
31390;SDS011;18022;45.492;11.548;2023-05-07T03:42:02;6.93;;;5.50;;
31390;SDS011;18022;45.492;11.548;2023-05-07T03:44:29;6.90;;;6.30;;
31390;SDS011;18022;45.492;11.548;2023-05-07T03:46:55;8.55;;;6.65;;
31390;SDS011;18022;45.492;11.548;2023-05-07T03:49:21;6.90;;;6.20;;
31390;SDS011;18022;45.492;11.548;2023-05-07T03:51:47;6.22;;;5.63;;
31390;SDS011;18022;45.492;11.548;2023-05-07T03:54:13;7.72;;;6.10;;
31390;SDS011;18022;45.492;11.548;2023-05-07T03:56:39;6.43;;;5.82;;
31390;SDS011;18022;45.492;11.548;2023-05-07T03:59:05;7.45;;;6.05;;
31390;SDS011;18022;45.492;11.548;2023-05-07T04:01:31;5.88;;;5.38;;
31390;SDS011;18022;45.492;11.548;2023-05-07T04:03:57;6.47;;;5.28;;
31390;SDS011;18022;45.492;11.548;2023-05-07T04:06:23;7.13;;;5.63;;
31390;SDS011;18022;45.492;11.548;2023-05-07T04:08:49;6.55;;;5.88;;
31390;SDS011;18022;45.492;11.548;2023-05-07T04:11:15;7.45;;;5.97;;
31390;SDS011;18022;45.492;11.548;2023-05-07T04:13:41;8.02;;;6.43;;
31390;SDS011;18022;45.492;11.548;2023-05-07T04:16:07;7.07;;;6.38;;
31390;SDS011;18022;45.492;11.548;2023-05-07T04:18:33;6.68;;;5.75;;
31390;SDS011;18022;45.492;11.548;2023-05-07T04:20:59;7.70;;;5.75;;
31390;SDS011;18022;45.492;11.548;2023-05-07T04:23:25;6.72;;;5.88;;
31390;SDS011;18022;45.492;11.548;2023-05-07T04:25:51;7.47;;;6.57;;
31390;SDS011;18022;45.492;11.548;2023-05-07T04:28:19;5.95;;;5.45;;
31390;SDS011;18022;45.492;11.548;2023-05-07T04:30:45;6.68;;;5.80;;
31390;SDS011;18022;45.492;11.548;2023-05-07T04:33:11;6.72;;;6.00;;
31390;SDS011;18022;45.492;11.548;2023-05-07T04:35:37;7.70;;;6.28;;
31390;SDS011;18022;45.492;11.548;2023-05-07T04:38:03;7.53;;;6.15;;
31390;SDS011;18022;45.492;11.548;2023-05-07T04:40:29;5.97;;;5.40;;
31390;SDS011;18022;45.492;11.548;2023-05-07T04:42:55;6.50;;;5.78;;
31390;SDS011;18022;45.492;11.548;2023-05-07T04:45:22;6.63;;;5.85;;
31390;SDS011;18022;45.492;11.548;2023-05-07T04:47:48;6.30;;;5.70;;
31390;SDS011;18022;45.492;11.548;2023-05-07T04:50:14;6.45;;;5.85;;
31390;SDS011;18022;45.492;11.548;2023-05-07T04:52:40;6.55;;;5.95;;
31390;SDS011;18022;45.492;11.548;2023-05-07T04:55:06;8.70;;;5.43;;
31390;SDS011;18022;45.492;11.548;2023-05-07T04:57:32;7.22;;;5.75;;
31390;SDS011;18022;45.492;11.548;2023-05-07T04:59:58;6.75;;;6.03;;
31390;SDS011;18022;45.492;11.548;2023-05-07T05:02:24;8.07;;;5.68;;
31390;SDS011;18022;45.492;11.548;2023-05-07T05:04:50;6.43;;;5.80;;
31390;SDS011;18022;45.492;11.548;2023-05-07T05:07:16;7.00;;;6.18;;
31390;SDS011;18022;45.492;11.548;2023-05-07T05:09:42;6.60;;;6.00;;
31390;SDS011;18022;45.492;11.548;2023-05-07T05:12:09;7.70;;;5.90;;
31390;SDS011;18022;45.492;11.548;2023-05-07T05:14:35;8.65;;;6.40;;
31390;SDS011;18022;45.492;11.548;2023-05-07T05:17:01;7.57;;;6.68;;
31390;SDS011;18022;45.492;11.548;2023-05-07T05:19:27;7.28;;;6.57;;
31390;SDS011;18022;45.492;11.548;2023-05-07T05:21:54;7.63;;;6.63;;
31390;SDS011;18022;45.492;11.548;2023-05-07T05:24:20;9.02;;;6.72;;
31390;SDS011;18022;45.492;11.548;2023-05-07T05:26:46;7.57;;;6.32;;
31390;SDS011;18022;45.492;11.548;2023-05-07T05:29:12;7.20;;;6.60;;
31390;SDS011;18022;45.492;11.548;2023-05-07T05:31:38;7.75;;;6.95;;
31390;SDS011;18022;45.492;11.548;2023-05-07T05:34:04;10.15;;;7.00;;
31390;SDS011;18022;45.492;11.548;2023-05-07T05:36:30;7.03;;;6.32;;
31390;SDS011;18022;45.492;11.548;2023-05-07T05:38:56;7.85;;;6.93;;
31390;SDS011;18022;45.492;11.548;2023-05-07T05:41:22;9.10;;;7.07;;
31390;SDS011;18022;45.492;11.548;2023-05-07T05:43:48;8.48;;;6.75;;
31390;SDS011;18022;45.492;11.548;2023-05-07T05:46:14;7.82;;;7.03;;
31390;SDS011;18022;45.492;11.548;2023-05-07T05:48:40;7.65;;;6.90;;
31390;SDS011;18022;45.492;11.548;2023-05-07T05:51:06;7.85;;;7.05;;
31390;SDS011;18022;45.492;11.548;2023-05-07T05:53:32;7.50;;;6.85;;
31390;SDS011;18022;45.492;11.548;2023-05-07T05:55:59;7.50;;;6.80;;
31390;SDS011;18022;45.492;11.548;2023-05-07T05:58:25;8.77;;;7.72;;
31390;SDS011;18022;45.492;11.548;2023-05-07T06:00:51;7.55;;;6.57;;
31390;SDS011;18022;45.492;11.548;2023-05-07T06:03:18;8.30;;;7.43;;
31390;SDS011;18022;45.492;11.548;2023-05-07T06:05:44;7.85;;;7.15;;
31390;SDS011;18022;45.492;11.548;2023-05-07T06:08:10;9.60;;;7.47;;
31390;SDS011;18022;45.492;11.548;2023-05-07T06:10:37;8.60;;;7.80;;
31390;SDS011;18022;45.492;11.548;2023-05-07T06:13:03;9.35;;;7.43;;
31390;SDS011;18022;45.492;11.548;2023-05-07T06:15:29;8.00;;;7.30;;
31390;SDS011;18022;45.492;11.548;2023-05-07T06:17:55;9.18;;;7.55;;
31390;SDS011;18022;45.492;11.548;2023-05-07T06:20:22;5.65;;;5.00;;
31390;SDS011;18022;45.492;11.548;2023-05-07T06:22:48;4.95;;;4.53;;
31390;SDS011;18022;45.492;11.548;2023-05-07T06:25:14;8.02;;;7.22;;
31390;SDS011;18022;45.492;11.548;2023-05-07T06:27:40;8.43;;;7.22;;
31390;SDS011;18022;45.492;11.548;2023-05-07T06:30:07;9.05;;;6.85;;
31390;SDS011;18022;45.492;11.548;2023-05-07T06:32:33;7.90;;;7.18;;
31390;SDS011;18022;45.492;11.548;2023-05-07T06:34:59;7.25;;;6.55;;
31390;SDS011;18022;45.492;11.548;2023-05-07T06:37:25;7.88;;;6.97;;
31390;SDS011;18022;45.492;11.548;2023-05-07T06:39:51;7.57;;;6.80;;
31390;SDS011;18022;45.492;11.548;2023-05-07T06:42:17;7.20;;;6.50;;
31390;SDS011;18022;45.492;11.548;2023-05-07T06:44:43;6.60;;;6.05;;
31390;SDS011;18022;45.492;11.548;2023-05-07T06:47:09;7.38;;;6.65;;
31390;SDS011;18022;45.492;11.548;2023-05-07T06:49:35;7.13;;;6.32;;
31390;SDS011;18022;45.492;11.548;2023-05-07T06:52:01;6.68;;;6.07;;
31390;SDS011;18022;45.492;11.548;2023-05-07T06:54:27;6.68;;;6.05;;
31390;SDS011;18022;45.492;11.548;2023-05-07T06:56:53;7.40;;;6.65;;
31390;SDS011;18022;45.492;11.548;2023-05-07T06:59:19;6.68;;;6.10;;
31390;SDS011;18022;45.492;11.548;2023-05-07T07:01:45;8.05;;;7.25;;
31390;SDS011;18022;45.492;11.548;2023-05-07T07:04:11;7.22;;;6.57;;
31390;SDS011;18022;45.492;11.548;2023-05-07T07:06:37;7.18;;;6.43;;
31390;SDS011;18022;45.492;11.548;2023-05-07T07:09:03;7.18;;;6.57;;
31390;SDS011;18022;45.492;11.548;2023-05-07T07:11:30;7.43;;;6.72;;
31390;SDS011;18022;45.492;11.548;2023-05-07T07:13:56;7.60;;;6.90;;
31390;SDS011;18022;45.492;11.548;2023-05-07T07:16:22;7.53;;;6.47;;
31390;SDS011;18022;45.492;11.548;2023-05-07T07:18:48;6.60;;;6.00;;
31390;SDS011;18022;45.492;11.548;2023-05-07T07:21:14;6.30;;;5.70;;
31390;SDS011;18022;45.492;11.548;2023-05-07T07:23:40;6.97;;;6.32;;
31390;SDS011;18022;45.492;11.548;2023-05-07T07:26:06;6.72;;;5.60;;
31390;SDS011;18022;45.492;11.548;2023-05-07T07:28:32;6.45;;;5.47;;
31390;SDS011;18022;45.492;11.548;2023-05-07T07:30:58;7.57;;;6.28;;
31390;SDS011;18022;45.492;11.548;2023-05-07T07:33:24;6.13;;;5.53;;
31390;SDS011;18022;45.492;11.548;2023-05-07T07:35:50;6.22;;;5.65;;
31390;SDS011;18022;45.492;11.548;2023-05-07T07:38:16;6.38;;;5.75;;
31390;SDS011;18022;45.492;11.548;2023-05-07T07:40:42;6.75;;;5.53;;
31390;SDS011;18022;45.492;11.548;2023-05-07T07:43:09;7.07;;;6.47;;
31390;SDS011;18022;45.492;11.548;2023-05-07T07:45:35;6.22;;;5.63;;
31390;SDS011;18022;45.492;11.548;2023-05-07T07:48:01;6.90;;;5.85;;
31390;SDS011;18022;45.492;11.548;2023-05-07T07:50:27;12.18;;;6.28;;
31390;SDS011;18022;45.492;11.548;2023-05-07T07:52:53;6.80;;;6.20;;
31390;SDS011;18022;45.492;11.548;2023-05-07T07:55:19;9.95;;;6.32;;
31390;SDS011;18022;45.492;11.548;2023-05-07T07:57:48;7.53;;;6.82;;
31390;SDS011;18022;45.492;11.548;2023-05-07T08:00:14;7.15;;;6.45;;
31390;SDS011;18022;45.492;11.548;2023-05-07T08:02:40;9.32;;;7.03;;
31390;SDS011;18022;45.492;11.548;2023-05-07T08:05:06;8.07;;;7.03;;
31390;SDS011;18022;45.492;11.548;2023-05-07T08:07:32;8.15;;;6.95;;
31390;SDS011;18022;45.492;11.548;2023-05-07T08:09:59;7.72;;;7.03;;
31390;SDS011;18022;45.492;11.548;2023-05-07T08:12:25;8.35;;;7.38;;
31390;SDS011;18022;45.492;11.548;2023-05-07T08:14:51;8.73;;;7.57;;
31390;SDS011;18022;45.492;11.548;2023-05-07T08:17:17;7.13;;;6.43;;
31390;SDS011;18022;45.492;11.548;2023-05-07T08:19:43;8.10;;;6.57;;
31390;SDS011;18022;45.492;11.548;2023-05-07T08:22:10;8.30;;;7.47;;
31390;SDS011;18022;45.492;11.548;2023-05-07T08:24:36;9.43;;;6.80;;
31390;SDS011;18022;45.492;11.548;2023-05-07T08:27:03;9.20;;;7.40;;
31390;SDS011;18022;45.492;11.548;2023-05-07T08:29:29;8.82;;;7.90;;
31390;SDS011;18022;45.492;11.548;2023-05-07T08:31:55;8.18;;;7.32;;
31390;SDS011;18022;45.492;11.548;2023-05-07T08:34:21;7.53;;;6.70;;
31390;SDS011;18022;45.492;11.548;2023-05-07T08:36:47;7.65;;;6.45;;
31390;SDS011;18022;45.492;11.548;2023-05-07T08:39:14;7.22;;;6.43;;
31390;SDS011;18022;45.492;11.548;2023-05-07T08:41:43;6.75;;;6.15;;
31390;SDS011;18022;45.492;11.548;2023-05-07T08:44:11;7.55;;;6.85;;
31390;SDS011;18022;45.492;11.548;2023-05-07T08:49:04;8.60;;;6.90;;
31390;SDS011;18022;45.492;11.548;2023-05-07T08:51:30;7.50;;;6.80;;
31390;SDS011;18022;45.492;11.548;2023-05-07T08:53:57;7.70;;;6.43;;
31390;SDS011;18022;45.492;11.548;2023-05-07T08:56:23;7.65;;;6.85;;
31390;SDS011;18022;45.492;11.548;2023-05-07T08:58:50;8.20;;;7.28;;
31390;SDS011;18022;45.492;11.548;2023-05-07T09:01:16;7.95;;;6.75;;
31390;SDS011;18022;45.492;11.548;2023-05-07T09:03:45;7.65;;;6.47;;
31390;SDS011;18022;45.492;11.548;2023-05-07T09:06:12;11.18;;;7.20;;
31390;SDS011;18022;45.492;11.548;2023-05-07T09:08:38;11.07;;;7.00;;
31390;SDS011;18022;45.492;11.548;2023-05-07T09:11:04;8.18;;;7.35;;
31390;SDS011;18022;45.492;11.548;2023-05-07T09:13:30;8.77;;;7.35;;
31390;SDS011;18022;45.492;11.548;2023-05-07T09:15:56;9.68;;;7.72;;
31390;SDS011;18022;45.492;11.548;2023-05-07T09:18:25;10.10;;;6.93;;
31390;SDS011;18022;45.492;11.548;2023-05-07T09:20:51;7.93;;;6.75;;
31390;SDS011;18022;45.492;11.548;2023-05-07T09:23:17;9.18;;;6.53;;
31390;SDS011;18022;45.492;11.548;2023-05-07T09:25:43;8.93;;;6.65;;
31390;SDS011;18022;45.492;11.548;2023-05-07T09:28:09;6.68;;;6.07;;
31390;SDS011;18022;45.492;11.548;2023-05-07T09:30:36;5.65;;;5.03;;
31390;SDS011;18022;45.492;11.548;2023-05-07T09:33:02;9.73;;;6.75;;
31390;SDS011;18022;45.492;11.548;2023-05-07T09:35:29;7.00;;;6.38;;
31390;SDS011;18022;45.492;11.548;2023-05-07T09:37:56;6.82;;;5.80;;
31390;SDS011;18022;45.492;11.548;2023-05-07T09:40:24;7.93;;;6.32;;
31390;SDS011;18022;45.492;11.548;2023-05-07T09:42:50;9.82;;;6.93;;
31390;SDS011;18022;45.492;11.548;2023-05-07T09:47:56;6.70;;;6.10;;
31390;SDS011;18022;45.492;11.548;2023-05-07T09:50:25;7.68;;;6.90;;
31390;SDS011;18022;45.492;11.548;2023-05-07T09:52:52;7.40;;;6.53;;
31390;SDS011;18022;45.492;11.548;2023-05-07T09:55:20;6.90;;;6.22;;
31390;SDS011;18022;45.492;11.548;2023-05-07T09:57:46;6.75;;;6.03;;
31390;SDS011;18022;45.492;11.548;2023-05-07T10:00:13;6.28;;;5.70;;
31390;SDS011;18022;45.492;11.548;2023-05-07T10:02:40;8.45;;;6.75;;
31390;SDS011;18022;45.492;11.548;2023-05-07T10:05:12;8.20;;;6.43;;
31390;SDS011;18022;45.492;11.548;2023-05-07T10:07:40;6.55;;;5.93;;
31390;SDS011;18022;45.492;11.548;2023-05-07T10:10:06;8.30;;;5.53;;
31390;SDS011;18022;45.492;11.548;2023-05-07T10:12:32;9.00;;;4.97;;
31390;SDS011;18022;45.492;11.548;2023-05-07T10:15:05;5.00;;;4.55;;
31390;SDS011;18022;45.492;11.548;2023-05-07T10:17:32;5.53;;;5.03;;
31390;SDS011;18022;45.492;11.548;2023-05-07T10:19:59;6.82;;;5.38;;
31390;SDS011;18022;45.492;11.548;2023-05-07T10:22:25;6.25;;;5.65;;
31390;SDS011;18022;45.492;11.548;2023-05-07T10:24:52;5.80;;;5.28;;
31390;SDS011;18022;45.492;11.548;2023-05-07T10:27:19;6.35;;;5.85;;
31390;SDS011;18022;45.492;11.548;2023-05-07T10:34:58;5.70;;;5.15;;
31390;SDS011;18022;45.492;11.548;2023-05-07T10:37:26;6.28;;;5.78;;
31390;SDS011;18022;45.492;11.548;2023-05-07T10:39:52;5.47;;;4.97;;
31390;SDS011;18022;45.492;11.548;2023-05-07T10:42:18;8.70;;;5.53;;
31390;SDS011;18022;45.492;11.548;2023-05-07T10:44:44;6.38;;;5.78;;
31390;SDS011;18022;45.492;11.548;2023-05-07T10:47:11;6.65;;;6.05;;
31390;SDS011;18022;45.492;11.548;2023-05-07T10:52:16;6.55;;;5.95;;
31390;SDS011;18022;45.492;11.548;2023-05-07T10:54:43;6.13;;;5.53;;
31390;SDS011;18022;45.492;11.548;2023-05-07T10:59:53;6.45;;;5.70;;
31390;SDS011;18022;45.492;11.548;2023-05-07T11:02:19;8.05;;;6.82;;
31390;SDS011;18022;45.492;11.548;2023-05-07T11:04:45;8.25;;;6.38;;
31390;SDS011;18022;45.492;11.548;2023-05-07T11:07:31;6.32;;;5.55;;
31390;SDS011;18022;45.492;11.548;2023-05-07T11:10:01;6.47;;;5.88;;
31390;SDS011;18022;45.492;11.548;2023-05-07T11:15:04;7.20;;;6.45;;
31390;SDS011;18022;45.492;11.548;2023-05-07T11:17:31;6.60;;;5.15;;
31390;SDS011;18022;45.492;11.548;2023-05-07T11:19:59;6.53;;;5.93;;
31390;SDS011;18022;45.492;11.548;2023-05-07T11:25:02;6.95;;;6.30;;
31390;SDS011;18022;45.492;11.548;2023-05-07T11:27:29;7.03;;;5.63;;
31390;SDS011;18022;45.492;11.548;2023-05-07T11:29:55;8.00;;;6.10;;
31390;SDS011;18022;45.492;11.548;2023-05-07T11:32:31;6.18;;;5.57;;
31390;SDS011;18022;45.492;11.548;2023-05-07T11:34:57;5.45;;;4.93;;
31390;SDS011;18022;45.492;11.548;2023-05-07T11:37:24;6.95;;;6.35;;
31390;SDS011;18022;45.492;11.548;2023-05-07T11:40:01;9.70;;;6.63;;
31390;SDS011;18022;45.492;11.548;2023-05-07T11:42:28;7.28;;;6.05;;
31390;SDS011;18022;45.492;11.548;2023-05-07T11:44:54;5.73;;;5.20;;
31390;SDS011;18022;45.492;11.548;2023-05-07T11:47:20;7.30;;;6.07;;
31390;SDS011;18022;45.492;11.548;2023-05-07T11:49:51;5.80;;;5.30;;
31390;SDS011;18022;45.492;11.548;2023-05-07T11:52:18;7.50;;;5.93;;
31390;SDS011;18022;45.492;11.548;2023-05-07T11:57:14;7.20;;;5.60;;
31390;SDS011;18022;45.492;11.548;2023-05-07T11:59:40;6.88;;;6.25;;
31390;SDS011;18022;45.492;11.548;2023-05-07T12:02:07;6.53;;;5.80;;
31390;SDS011;18022;45.492;11.548;2023-05-07T12:04:33;5.93;;;5.30;;
31390;SDS011;18022;45.492;11.548;2023-05-07T12:06:59;6.40;;;5.70;;
31390;SDS011;18022;45.492;11.548;2023-05-07T12:09:26;9.97;;;5.93;;
31390;SDS011;18022;45.492;11.548;2023-05-07T12:11:52;6.38;;;5.72;;
31390;SDS011;18022;45.492;11.548;2023-05-07T12:14:18;7.47;;;6.25;;
31390;SDS011;18022;45.492;11.548;2023-05-07T12:16:44;10.53;;;5.47;;
31390;SDS011;18022;45.492;11.548;2023-05-07T12:19:11;6.30;;;5.70;;
31390;SDS011;18022;45.492;11.548;2023-05-07T12:21:37;7.13;;;5.63;;
31390;SDS011;18022;45.492;11.548;2023-05-07T12:24:04;7.27;;;6.03;;
31390;SDS011;18022;45.492;11.548;2023-05-07T12:26:30;6.50;;;5.88;;
31390;SDS011;18022;45.492;11.548;2023-05-07T12:28:57;8.13;;;5.68;;
31390;SDS011;18022;45.492;11.548;2023-05-07T12:31:25;5.18;;;4.78;;
31390;SDS011;18022;45.492;11.548;2023-05-07T12:33:51;6.85;;;5.18;;
31390;SDS011;18022;45.492;11.548;2023-05-07T12:36:17;5.60;;;5.10;;
31390;SDS011;18022;45.492;11.548;2023-05-07T12:38:43;6.20;;;5.53;;
31390;SDS011;18022;45.492;11.548;2023-05-07T12:41:10;6.53;;;5.75;;
31390;SDS011;18022;45.492;11.548;2023-05-07T12:43:37;7.57;;;5.57;;
31390;SDS011;18022;45.492;11.548;2023-05-07T12:46:04;5.78;;;5.15;;
31390;SDS011;18022;45.492;11.548;2023-05-07T12:48:30;7.72;;;5.60;;
31390;SDS011;18022;45.492;11.548;2023-05-07T12:50:57;7.60;;;6.90;;
31390;SDS011;18022;45.492;11.548;2023-05-07T12:53:24;8.65;;;6.72;;
31390;SDS011;18022;45.492;11.548;2023-05-07T12:55:51;6.43;;;5.82;;
31390;SDS011;18022;45.492;11.548;2023-05-07T12:58:18;7.50;;;6.13;;
31390;SDS011;18022;45.492;11.548;2023-05-07T13:00:46;7.18;;;5.90;;
31390;SDS011;18022;45.492;11.548;2023-05-07T13:03:15;5.78;;;5.22;;
31390;SDS011;18022;45.492;11.548;2023-05-07T13:05:46;9.02;;;6.15;;
31390;SDS011;18022;45.492;11.548;2023-05-07T13:08:12;6.72;;;5.40;;
31390;SDS011;18022;45.492;11.548;2023-05-07T13:10:38;8.15;;;6.45;;
31390;SDS011;18022;45.492;11.548;2023-05-07T13:13:04;5.90;;;5.30;;
31390;SDS011;18022;45.492;11.548;2023-05-07T13:15:30;10.35;;;5.72;;
31390;SDS011;18022;45.492;11.548;2023-05-07T13:17:56;6.05;;;5.55;;
31390;SDS011;18022;45.492;11.548;2023-05-07T13:20:22;5.60;;;5.20;;
31390;SDS011;18022;45.492;11.548;2023-05-07T13:22:48;7.95;;;6.28;;
31390;SDS011;18022;45.492;11.548;2023-05-07T13:25:15;6.40;;;5.70;;
31390;SDS011;18022;45.492;11.548;2023-05-07T13:27:41;9.55;;;5.43;;
31390;SDS011;18022;45.492;11.548;2023-05-07T13:30:08;6.30;;;5.70;;
31390;SDS011;18022;45.492;11.548;2023-05-07T13:32:34;6.53;;;5.93;;
31390;SDS011;18022;45.492;11.548;2023-05-07T13:35:00;7.20;;;5.30;;
31390;SDS011;18022;45.492;11.548;2023-05-07T13:37:26;8.10;;;6.45;;
31390;SDS011;18022;45.492;11.548;2023-05-07T13:39:52;7.70;;;5.72;;
31390;SDS011;18022;45.492;11.548;2023-05-07T13:42:18;5.60;;;5.10;;
31390;SDS011;18022;45.492;11.548;2023-05-07T13:44:44;7.00;;;5.22;;
31390;SDS011;18022;45.492;11.548;2023-05-07T13:47:11;6.88;;;5.82;;
31390;SDS011;18022;45.492;11.548;2023-05-07T13:49:37;5.82;;;5.28;;
31390;SDS011;18022;45.492;11.548;2023-05-07T13:52:03;6.72;;;5.72;;
31390;SDS011;18022;45.492;11.548;2023-05-07T13:54:29;6.80;;;5.78;;
31390;SDS011;18022;45.492;11.548;2023-05-07T13:56:55;6.25;;;5.15;;
31390;SDS011;18022;45.492;11.548;2023-05-07T13:59:21;5.85;;;5.25;;
31390;SDS011;18022;45.492;11.548;2023-05-07T14:01:47;6.72;;;5.00;;
31390;SDS011;18022;45.492;11.548;2023-05-07T14:04:14;8.13;;;5.43;;
31390;SDS011;18022;45.492;11.548;2023-05-07T14:06:40;7.03;;;5.18;;
31390;SDS011;18022;45.492;11.548;2023-05-07T14:09:06;6.18;;;4.53;;
31390;SDS011;18022;45.492;11.548;2023-05-07T14:11:32;6.63;;;5.22;;
31390;SDS011;18022;45.492;11.548;2023-05-07T14:13:59;6.18;;;5.00;;
31390;SDS011;18022;45.492;11.548;2023-05-07T14:16:25;6.07;;;5.57;;
31390;SDS011;18022;45.492;11.548;2023-05-07T14:18:51;6.30;;;4.75;;
31390;SDS011;18022;45.492;11.548;2023-05-07T14:21:17;6.38;;;5.78;;
31390;SDS011;18022;45.492;11.548;2023-05-07T14:23:43;7.03;;;6.32;;
31390;SDS011;18022;45.492;11.548;2023-05-07T14:26:09;5.65;;;5.15;;
31390;SDS011;18022;45.492;11.548;2023-05-07T14:28:35;6.00;;;5.50;;
31390;SDS011;18022;45.492;11.548;2023-05-07T14:31:01;8.02;;;5.55;;
31390;SDS011;18022;45.492;11.548;2023-05-07T14:33:27;5.88;;;5.18;;
31390;SDS011;18022;45.492;11.548;2023-05-07T14:35:53;6.20;;;5.70;;
31390;SDS011;18022;45.492;11.548;2023-05-07T14:38:19;6.53;;;5.53;;
31390;SDS011;18022;45.492;11.548;2023-05-07T14:40:45;6.78;;;6.18;;
31390;SDS011;18022;45.492;11.548;2023-05-07T14:43:11;6.57;;;5.82;;
31390;SDS011;18022;45.492;11.548;2023-05-07T14:45:37;6.22;;;5.63;;
31390;SDS011;18022;45.492;11.548;2023-05-07T14:48:03;8.90;;;6.47;;
31390;SDS011;18022;45.492;11.548;2023-05-07T14:50:30;11.93;;;7.18;;
31390;SDS011;18022;45.492;11.548;2023-05-07T14:52:56;7.10;;;6.25;;